Terminal Aerodrome Forecast
Issued by NWS Wilmington, NC

Home | Current Version | Previous Version | Text Only | Print | Product List | Glossary On
Versions: 1 2 3 4 5 6 7 8 9 10 11 12 13 14 15 16 17 18 19 20 21 22
652
FTUS42 KILM 302320
TAFMYR
TAF
KMYR 302320Z 0100/0124 19013KT P6SM FEW020 FEW250
      TEMPO 0108/0112 BKN020
     FM011300 19020G32KT P6SM SCT025 BKN110
      AMD LTD TO CLD VIS AND WIND 0103/0110=

USA.gov is the U.S. government's official web portal to all federal, state and local government web resources and services.